Hauptseite
METAR-TAF:

METAR-TAF

Flughäfen :

Flughafen Gibraltar

Gibraltar, Gibraltar

Breite: 36-09N, Länge: 005-21W, Höhe: 5 m

Beobachtung

Neuester Wetterbericht von vor 1 Stunde und 12 Minuten, um 21:50 UTC
Wind 14 kt aus Ost
Temperatur 23°C
Luftfeuchtigkeit 78%
Luftdruck 1015 hPa
Sichtweite 10 km oder mehr

METAR: LXGB 232150Z AUTO 09014KT 9999 // NCD 23/19 Q1015

Zeit: 01:02 (23:02 UTC)

Prognose

Neuester Wetterbericht von vor 9 Stunden und 45 Minuten, um 13:17 UTC
Gültige Prognose vom 23 um 15 UTC bis 23 um 22 UTC
Wind 10 kt aus Ost
Sichtweite 10 km oder mehr
Leicht bewölkt in der Höhe von 2600 ft

TAF: LXGB 231317Z 2315/2322 09010KT 9999 FEW026

Wetterbeobachtungen und Prognosen von mehr als 4000 Flughäfen (METAR und TAF Bericht).

Die verfügbaren Stationen werden durch gelbe und rote Markierungen auf der Karte dargestellt.

Führen Sie die Maus auf sie, um den Namen der Station zu sehen.

Darauf klicken, um die Beobachtung von Wetterbeobachtungen und Prognosen zu sehen.

Um die Karte zu ändern : klicken Sie auf den grünen Tasten mit einem schwarzen Kreuz Zum Vergrößern, auf den grünen Button mit einem Gedankenstrich zu verkleinern, oder auf die grünen Pfeile für benachbarte Karten.


METAR-TAF: